sensor_id;sensor_type;location;lat;lon;timestamp;P1;durP1;ratioP1;P2;durP2;ratioP2
8092;SDS011;4089;52.420;13.334;2023-04-24T00:01:07;26.10;;;7.70;;
8092;SDS011;4089;52.420;13.334;2023-04-24T00:03:34;26.60;;;8.40;;
8092;SDS011;4089;52.420;13.334;2023-04-24T00:06:02;26.07;;;8.27;;
8092;SDS011;4089;52.420;13.334;2023-04-24T00:08:28;23.53;;;7.30;;
8092;SDS011;4089;52.420;13.334;2023-04-24T00:10:56;22.60;;;6.77;;
8092;SDS011;4089;52.420;13.334;2023-04-24T00:13:23;24.90;;;7.03;;
8092;SDS011;4089;52.420;13.334;2023-04-24T00:15:50;25.37;;;7.40;;
8092;SDS011;4089;52.420;13.334;2023-04-24T00:18:17;24.20;;;7.30;;
8092;SDS011;4089;52.420;13.334;2023-04-24T00:20:44;24.33;;;6.80;;
8092;SDS011;4089;52.420;13.334;2023-04-24T00:23:11;22.77;;;7.30;;
8092;SDS011;4089;52.420;13.334;2023-04-24T00:25:37;23.07;;;7.60;;
8092;SDS011;4089;52.420;13.334;2023-04-24T00:28:06;22.50;;;7.17;;
8092;SDS011;4089;52.420;13.334;2023-04-24T00:30:32;23.97;;;7.17;;
8092;SDS011;4089;52.420;13.334;2023-04-24T00:32:59;29.10;;;7.83;;
8092;SDS011;4089;52.420;13.334;2023-04-24T00:35:26;23.03;;;7.40;;
8092;SDS011;4089;52.420;13.334;2023-04-24T00:37:53;24.70;;;7.43;;
8092;SDS011;4089;52.420;13.334;2023-04-24T00:40:19;22.80;;;7.67;;
8092;SDS011;4089;52.420;13.334;2023-04-24T00:42:46;22.03;;;6.90;;
8092;SDS011;4089;52.420;13.334;2023-04-24T00:45:13;24.70;;;7.70;;
8092;SDS011;4089;52.420;13.334;2023-04-24T00:47:41;24.90;;;7.87;;
8092;SDS011;4089;52.420;13.334;2023-04-24T00:50:08;23.93;;;7.40;;
8092;SDS011;4089;52.420;13.334;2023-04-24T00:52:35;25.20;;;8.60;;
8092;SDS011;4089;52.420;13.334;2023-04-24T00:55:03;23.77;;;7.80;;
8092;SDS011;4089;52.420;13.334;2023-04-24T00:57:30;23.87;;;8.10;;
8092;SDS011;4089;52.420;13.334;2023-04-24T00:59:57;23.70;;;8.27;;
8092;SDS011;4089;52.420;13.334;2023-04-24T01:02:24;24.73;;;7.87;;
8092;SDS011;4089;52.420;13.334;2023-04-24T01:04:52;24.60;;;8.70;;
8092;SDS011;4089;52.420;13.334;2023-04-24T01:07:19;27.20;;;7.50;;
8092;SDS011;4089;52.420;13.334;2023-04-24T01:09:47;22.73;;;7.07;;
8092;SDS011;4089;52.420;13.334;2023-04-24T01:12:17;23.57;;;7.27;;
8092;SDS011;4089;52.420;13.334;2023-04-24T01:14:44;23.77;;;8.00;;
8092;SDS011;4089;52.420;13.334;2023-04-24T01:17:11;23.47;;;7.73;;
8092;SDS011;4089;52.420;13.334;2023-04-24T01:19:38;24.87;;;7.30;;
8092;SDS011;4089;52.420;13.334;2023-04-24T01:22:10;24.27;;;7.53;;
8092;SDS011;4089;52.420;13.334;2023-04-24T01:24:38;28.77;;;8.53;;
8092;SDS011;4089;52.420;13.334;2023-04-24T01:27:05;24.97;;;7.50;;
8092;SDS011;4089;52.420;13.334;2023-04-24T01:29:32;27.97;;;7.57;;
8092;SDS011;4089;52.420;13.334;2023-04-24T01:31:59;26.47;;;7.90;;
8092;SDS011;4089;52.420;13.334;2023-04-24T01:34:26;24.37;;;8.03;;
8092;SDS011;4089;52.420;13.334;2023-04-24T01:36:53;22.83;;;7.73;;
8092;SDS011;4089;52.420;13.334;2023-04-24T01:39:20;22.40;;;6.60;;
8092;SDS011;4089;52.420;13.334;2023-04-24T01:41:49;22.60;;;7.40;;
8092;SDS011;4089;52.420;13.334;2023-04-24T01:44:16;23.17;;;7.80;;
8092;SDS011;4089;52.420;13.334;2023-04-24T01:46:44;23.77;;;8.00;;
8092;SDS011;4089;52.420;13.334;2023-04-24T01:49:11;23.80;;;7.40;;
8092;SDS011;4089;52.420;13.334;2023-04-24T01:51:38;22.37;;;6.87;;
8092;SDS011;4089;52.420;13.334;2023-04-24T01:54:04;24.20;;;7.70;;
8092;SDS011;4089;52.420;13.334;2023-04-24T01:56:35;25.40;;;8.57;;
8092;SDS011;4089;52.420;13.334;2023-04-24T01:59:06;23.53;;;7.47;;
8092;SDS011;4089;52.420;13.334;2023-04-24T02:01:35;23.27;;;7.80;;
8092;SDS011;4089;52.420;13.334;2023-04-24T02:04:03;22.43;;;7.10;;
8092;SDS011;4089;52.420;13.334;2023-04-24T02:06:31;22.60;;;7.80;;
8092;SDS011;4089;52.420;13.334;2023-04-24T02:08:58;23.33;;;7.30;;
8092;SDS011;4089;52.420;13.334;2023-04-24T02:11:26;22.10;;;7.77;;
8092;SDS011;4089;52.420;13.334;2023-04-24T02:13:53;24.33;;;8.23;;
8092;SDS011;4089;52.420;13.334;2023-04-24T02:16:19;24.57;;;8.20;;
8092;SDS011;4089;52.420;13.334;2023-04-24T02:18:46;23.47;;;7.40;;
8092;SDS011;4089;52.420;13.334;2023-04-24T02:21:13;27.33;;;7.90;;
8092;SDS011;4089;52.420;13.334;2023-04-24T02:23:40;24.43;;;8.40;;
8092;SDS011;4089;52.420;13.334;2023-04-24T02:26:07;25.30;;;9.20;;
8092;SDS011;4089;52.420;13.334;2023-04-24T02:28:34;29.43;;;8.50;;
8092;SDS011;4089;52.420;13.334;2023-04-24T02:31:01;25.03;;;8.10;;
8092;SDS011;4089;52.420;13.334;2023-04-24T02:33:28;25.33;;;8.30;;
8092;SDS011;4089;52.420;13.334;2023-04-24T02:35:54;25.37;;;8.20;;
8092;SDS011;4089;52.420;13.334;2023-04-24T02:38:21;24.47;;;8.87;;
8092;SDS011;4089;52.420;13.334;2023-04-24T02:40:48;28.10;;;10.33;;
8092;SDS011;4089;52.420;13.334;2023-04-24T02:43:15;26.33;;;9.87;;
8092;SDS011;4089;52.420;13.334;2023-04-24T02:45:42;24.53;;;9.00;;
8092;SDS011;4089;52.420;13.334;2023-04-24T02:48:08;28.47;;;8.60;;
8092;SDS011;4089;52.420;13.334;2023-04-24T02:50:35;25.70;;;9.13;;
8092;SDS011;4089;52.420;13.334;2023-04-24T02:53:02;25.37;;;9.20;;
8092;SDS011;4089;52.420;13.334;2023-04-24T02:55:29;23.93;;;8.77;;
8092;SDS011;4089;52.420;13.334;2023-04-24T02:57:56;26.30;;;10.07;;
8092;SDS011;4089;52.420;13.334;2023-04-24T03:00:23;26.70;;;8.90;;
8092;SDS011;4089;52.420;13.334;2023-04-24T03:02:49;25.30;;;9.77;;
8092;SDS011;4089;52.420;13.334;2023-04-24T03:05:17;23.80;;;9.60;;
8092;SDS011;4089;52.420;13.334;2023-04-24T03:07:43;27.30;;;10.30;;
8092;SDS011;4089;52.420;13.334;2023-04-24T03:10:11;32.30;;;10.83;;
8092;SDS011;4089;52.420;13.334;2023-04-24T03:12:38;28.67;;;10.17;;
8092;SDS011;4089;52.420;13.334;2023-04-24T03:15:05;29.93;;;10.47;;
8092;SDS011;4089;52.420;13.334;2023-04-24T03:17:32;28.80;;;11.00;;
8092;SDS011;4089;52.420;13.334;2023-04-24T03:19:59;32.53;;;10.40;;
8092;SDS011;4089;52.420;13.334;2023-04-24T03:22:26;25.80;;;9.30;;
8092;SDS011;4089;52.420;13.334;2023-04-24T03:24:53;24.27;;;9.30;;
8092;SDS011;4089;52.420;13.334;2023-04-24T03:27:21;25.17;;;8.60;;
8092;SDS011;4089;52.420;13.334;2023-04-24T03:29:47;25.00;;;9.07;;
8092;SDS011;4089;52.420;13.334;2023-04-24T03:32:14;24.20;;;10.00;;
8092;SDS011;4089;52.420;13.334;2023-04-24T03:34:41;24.50;;;9.23;;
8092;SDS011;4089;52.420;13.334;2023-04-24T03:37:07;28.67;;;10.27;;
8092;SDS011;4089;52.420;13.334;2023-04-24T03:39:34;27.23;;;9.33;;
8092;SDS011;4089;52.420;13.334;2023-04-24T03:42:01;24.57;;;9.70;;
8092;SDS011;4089;52.420;13.334;2023-04-24T03:44:28;25.10;;;8.87;;
8092;SDS011;4089;52.420;13.334;2023-04-24T03:46:55;24.90;;;8.77;;
8092;SDS011;4089;52.420;13.334;2023-04-24T03:49:22;26.37;;;9.10;;
8092;SDS011;4089;52.420;13.334;2023-04-24T03:51:48;25.40;;;9.77;;
8092;SDS011;4089;52.420;13.334;2023-04-24T03:54:15;23.73;;;9.00;;
8092;SDS011;4089;52.420;13.334;2023-04-24T03:56:42;25.70;;;9.80;;
8092;SDS011;4089;52.420;13.334;2023-04-24T03:59:08;22.80;;;8.70;;
8092;SDS011;4089;52.420;13.334;2023-04-24T04:01:36;23.70;;;9.57;;
8092;SDS011;4089;52.420;13.334;2023-04-24T04:04:03;24.80;;;8.90;;
8092;SDS011;4089;52.420;13.334;2023-04-24T04:06:31;24.60;;;9.07;;
8092;SDS011;4089;52.420;13.334;2023-04-24T04:08:58;23.70;;;8.77;;
8092;SDS011;4089;52.420;13.334;2023-04-24T04:11:25;25.20;;;8.60;;
8092;SDS011;4089;52.420;13.334;2023-04-24T04:13:52;25.17;;;8.60;;
8092;SDS011;4089;52.420;13.334;2023-04-24T04:16:19;27.90;;;8.00;;
8092;SDS011;4089;52.420;13.334;2023-04-24T04:18:46;26.10;;;8.93;;
8092;SDS011;4089;52.420;13.334;2023-04-24T04:21:13;23.83;;;8.00;;
8092;SDS011;4089;52.420;13.334;2023-04-24T04:23:39;27.37;;;8.70;;
8092;SDS011;4089;52.420;13.334;2023-04-24T04:26:06;25.10;;;8.03;;
8092;SDS011;4089;52.420;13.334;2023-04-24T04:28:34;24.93;;;8.07;;
8092;SDS011;4089;52.420;13.334;2023-04-24T04:31:01;25.83;;;8.07;;
8092;SDS011;4089;52.420;13.334;2023-04-24T04:33:28;25.73;;;7.80;;
8092;SDS011;4089;52.420;13.334;2023-04-24T04:35:54;26.10;;;7.60;;
8092;SDS011;4089;52.420;13.334;2023-04-24T04:38:24;25.30;;;9.63;;
8092;SDS011;4089;52.420;13.334;2023-04-24T04:40:56;25.30;;;8.47;;
8092;SDS011;4089;52.420;13.334;2023-04-24T04:43:23;26.90;;;7.20;;
8092;SDS011;4089;52.420;13.334;2023-04-24T04:45:51;26.27;;;8.47;;
8092;SDS011;4089;52.420;13.334;2023-04-24T04:48:18;23.87;;;7.97;;
8092;SDS011;4089;52.420;13.334;2023-04-24T04:50:46;22.53;;;7.00;;
8092;SDS011;4089;52.420;13.334;2023-04-24T04:53:13;22.73;;;6.70;;
8092;SDS011;4089;52.420;13.334;2023-04-24T04:55:40;22.93;;;6.90;;
8092;SDS011;4089;52.420;13.334;2023-04-24T04:58:06;22.00;;;7.10;;
8092;SDS011;4089;52.420;13.334;2023-04-24T05:00:33;32.80;;;9.27;;
8092;SDS011;4089;52.420;13.334;2023-04-24T05:03:03;30.37;;;9.50;;
8092;SDS011;4089;52.420;13.334;2023-04-24T05:05:46;56.30;;;18.67;;
8092;SDS011;4089;52.420;13.334;2023-04-24T05:08:12;37.53;;;11.97;;
8092;SDS011;4089;52.420;13.334;2023-04-24T05:10:52;27.70;;;8.30;;
8092;SDS011;4089;52.420;13.334;2023-04-24T05:13:19;37.60;;;9.10;;
8092;SDS011;4089;52.420;13.334;2023-04-24T05:15:57;24.70;;;6.57;;
8092;SDS011;4089;52.420;13.334;2023-04-24T05:18:24;20.30;;;5.30;;
8092;SDS011;4089;52.420;13.334;2023-04-24T05:20:51;20.40;;;4.50;;
8092;SDS011;4089;52.420;13.334;2023-04-24T05:23:18;18.47;;;4.67;;
8092;SDS011;4089;52.420;13.334;2023-04-24T05:25:44;17.53;;;3.90;;
8092;SDS011;4089;52.420;13.334;2023-04-24T05:28:12;18.43;;;4.03;;
8092;SDS011;4089;52.420;13.334;2023-04-24T05:30:39;18.43;;;4.17;;
8092;SDS011;4089;52.420;13.334;2023-04-24T05:33:06;21.00;;;4.30;;
8092;SDS011;4089;52.420;13.334;2023-04-24T05:35:33;17.80;;;4.00;;
8092;SDS011;4089;52.420;13.334;2023-04-24T05:38:00;21.30;;;5.83;;
8092;SDS011;4089;52.420;13.334;2023-04-24T05:40:27;20.90;;;4.70;;
8092;SDS011;4089;52.420;13.334;2023-04-24T05:42:54;19.03;;;3.83;;
8092;SDS011;4089;52.420;13.334;2023-04-24T05:45:20;21.50;;;4.30;;
8092;SDS011;4089;52.420;13.334;2023-04-24T05:47:47;19.77;;;4.57;;
8092;SDS011;4089;52.420;13.334;2023-04-24T05:50:14;18.60;;;4.03;;
8092;SDS011;4089;52.420;13.334;2023-04-24T05:52:41;19.43;;;3.80;;
8092;SDS011;4089;52.420;13.334;2023-04-24T05:55:07;20.20;;;3.37;;
8092;SDS011;4089;52.420;13.334;2023-04-24T05:57:34;17.80;;;3.50;;
8092;SDS011;4089;52.420;13.334;2023-04-24T06:00:01;17.80;;;3.30;;
8092;SDS011;4089;52.420;13.334;2023-04-24T06:02:30;18.60;;;3.10;;
8092;SDS011;4089;52.420;13.334;2023-04-24T06:04:59;18.10;;;3.10;;
8092;SDS011;4089;52.420;13.334;2023-04-24T06:07:26;20.37;;;3.00;;
8092;SDS011;4089;52.420;13.334;2023-04-24T06:09:53;19.90;;;2.20;;
8092;SDS011;4089;52.420;13.334;2023-04-24T06:12:19;15.57;;;2.10;;
8092;SDS011;4089;52.420;13.334;2023-04-24T06:14:46;17.17;;;1.80;;
8092;SDS011;4089;52.420;13.334;2023-04-24T06:17:13;15.63;;;1.57;;
8092;SDS011;4089;52.420;13.334;2023-04-24T06:19:40;14.90;;;1.40;;
8092;SDS011;4089;52.420;13.334;2023-04-24T06:22:07;16.70;;;2.43;;
8092;SDS011;4089;52.420;13.334;2023-04-24T06:24:36;16.83;;;3.13;;
8092;SDS011;4089;52.420;13.334;2023-04-24T06:27:03;15.80;;;2.03;;
8092;SDS011;4089;52.420;13.334;2023-04-24T06:29:29;16.17;;;1.83;;
8092;SDS011;4089;52.420;13.334;2023-04-24T06:31:56;17.70;;;2.57;;
8092;SDS011;4089;52.420;13.334;2023-04-24T06:34:23;17.00;;;1.73;;
8092;SDS011;4089;52.420;13.334;2023-04-24T06:36:50;17.90;;;1.70;;
8092;SDS011;4089;52.420;13.334;2023-04-24T06:39:16;15.73;;;1.80;;
8092;SDS011;4089;52.420;13.334;2023-04-24T06:41:43;17.67;;;1.73;;
8092;SDS011;4089;52.420;13.334;2023-04-24T06:44:10;17.43;;;1.30;;
8092;SDS011;4089;52.420;13.334;2023-04-24T06:46:37;18.33;;;2.00;;
8092;SDS011;4089;52.420;13.334;2023-04-24T06:49:06;16.70;;;1.50;;
8092;SDS011;4089;52.420;13.334;2023-04-24T06:51:33;17.10;;;1.73;;
8092;SDS011;4089;52.420;13.334;2023-04-24T06:54:00;16.00;;;1.37;;
8092;SDS011;4089;52.420;13.334;2023-04-24T06:56:28;17.30;;;1.50;;
8092;SDS011;4089;52.420;13.334;2023-04-24T06:58:55;15.83;;;1.53;;
8092;SDS011;4089;52.420;13.334;2023-04-24T07:01:22;16.83;;;1.37;;
8092;SDS011;4089;52.420;13.334;2023-04-24T07:03:49;15.93;;;1.10;;
8092;SDS011;4089;52.420;13.334;2023-04-24T07:06:16;16.73;;;1.10;;
8092;SDS011;4089;52.420;13.334;2023-04-24T07:08:47;16.37;;;1.30;;
8092;SDS011;4089;52.420;13.334;2023-04-24T07:11:14;17.93;;;1.37;;
8092;SDS011;4089;52.420;13.334;2023-04-24T07:13:41;19.63;;;1.40;;
8092;SDS011;4089;52.420;13.334;2023-04-24T07:16:08;16.00;;;1.40;;
8092;SDS011;4089;52.420;13.334;2023-04-24T07:18:35;17.27;;;1.13;;
8092;SDS011;4089;52.420;13.334;2023-04-24T07:21:03;15.53;;;1.10;;
8092;SDS011;4089;52.420;13.334;2023-04-24T07:23:30;17.73;;;1.27;;
8092;SDS011;4089;52.420;13.334;2023-04-24T07:25:57;16.33;;;1.20;;
8092;SDS011;4089;52.420;13.334;2023-04-24T07:28:24;17.53;;;1.40;;
8092;SDS011;4089;52.420;13.334;2023-04-24T07:30:51;19.97;;;1.40;;
8092;SDS011;4089;52.420;13.334;2023-04-24T07:33:20;18.90;;;1.30;;
8092;SDS011;4089;52.420;13.334;2023-04-24T07:35:47;16.70;;;1.20;;
8092;SDS011;4089;52.420;13.334;2023-04-24T07:38:14;15.90;;;1.00;;
8092;SDS011;4089;52.420;13.334;2023-04-24T07:40:40;19.90;;;1.00;;
8092;SDS011;4089;52.420;13.334;2023-04-24T07:43:08;18.87;;;1.30;;
8092;SDS011;4089;52.420;13.334;2023-04-24T07:45:34;15.70;;;1.00;;
8092;SDS011;4089;52.420;13.334;2023-04-24T07:48:03;18.07;;;1.20;;
8092;SDS011;4089;52.420;13.334;2023-04-24T07:50:30;16.37;;;1.10;;
8092;SDS011;4089;52.420;13.334;2023-04-24T07:52:57;18.70;;;1.13;;
8092;SDS011;4089;52.420;13.334;2023-04-24T07:55:24;16.17;;;0.97;;
8092;SDS011;4089;52.420;13.334;2023-04-24T07:57:53;16.40;;;0.93;;
8092;SDS011;4089;52.420;13.334;2023-04-24T08:00:20;16.87;;;0.93;;
8092;SDS011;4089;52.420;13.334;2023-04-24T08:02:47;18.63;;;0.90;;
8092;SDS011;4089;52.420;13.334;2023-04-24T08:05:14;17.20;;;1.00;;
8092;SDS011;4089;52.420;13.334;2023-04-24T08:07:41;17.50;;;0.87;;
8092;SDS011;4089;52.420;13.334;2023-04-24T08:10:12;20.20;;;0.70;;
8092;SDS011;4089;52.420;13.334;2023-04-24T08:12:39;18.23;;;0.60;;
8092;SDS011;4089;52.420;13.334;2023-04-24T08:15:07;19.00;;;0.80;;
8092;SDS011;4089;52.420;13.334;2023-04-24T08:17:34;19.23;;;0.60;;
8092;SDS011;4089;52.420;13.334;2023-04-24T08:20:02;17.07;;;1.00;;
8092;SDS011;4089;52.420;13.334;2023-04-24T08:22:31;18.47;;;1.00;;
8092;SDS011;4089;52.420;13.334;2023-04-24T08:24:59;16.57;;;0.73;;
8092;SDS011;4089;52.420;13.334;2023-04-24T08:27:26;17.40;;;0.93;;
8092;SDS011;4089;52.420;13.334;2023-04-24T08:29:53;18.20;;;0.90;;
8092;SDS011;4089;52.420;13.334;2023-04-24T08:32:20;17.93;;;0.87;;
8092;SDS011;4089;52.420;13.334;2023-04-24T08:34:48;17.50;;;0.80;;
8092;SDS011;4089;52.420;13.334;2023-04-24T08:37:15;18.00;;;0.80;;
8092;SDS011;4089;52.420;13.334;2023-04-24T08:39:42;17.17;;;0.90;;
8092;SDS011;4089;52.420;13.334;2023-04-24T08:42:09;18.20;;;0.80;;
8092;SDS011;4089;52.420;13.334;2023-04-24T08:44:39;17.70;;;1.30;;
8092;SDS011;4089;52.420;13.334;2023-04-24T08:47:06;18.30;;;1.50;;
8092;SDS011;4089;52.420;13.334;2023-04-24T08:49:35;17.50;;;0.93;;
8092;SDS011;4089;52.420;13.334;2023-04-24T08:52:03;17.70;;;0.80;;
8092;SDS011;4089;52.420;13.334;2023-04-24T08:54:31;17.90;;;0.90;;
8092;SDS011;4089;52.420;13.334;2023-04-24T08:57:01;17.93;;;0.87;;
8092;SDS011;4089;52.420;13.334;2023-04-24T08:59:30;17.50;;;1.00;;
8092;SDS011;4089;52.420;13.334;2023-04-24T09:01:57;18.87;;;1.00;;
8092;SDS011;4089;52.420;13.334;2023-04-24T09:04:24;19.33;;;0.73;;
8092;SDS011;4089;52.420;13.334;2023-04-24T09:06:56;18.60;;;0.90;;
8092;SDS011;4089;52.420;13.334;2023-04-24T09:09:24;17.43;;;0.80;;
8092;SDS011;4089;52.420;13.334;2023-04-24T09:11:52;18.63;;;1.10;;
8092;SDS011;4089;52.420;13.334;2023-04-24T09:14:21;17.13;;;0.80;;
8092;SDS011;4089;52.420;13.334;2023-04-24T09:16:50;17.47;;;0.70;;
8092;SDS011;4089;52.420;13.334;2023-04-24T09:19:17;17.17;;;0.80;;
8092;SDS011;4089;52.420;13.334;2023-04-24T09:21:47;18.40;;;0.90;;
8092;SDS011;4089;52.420;13.334;2023-04-24T09:24:20;17.37;;;0.70;;
8092;SDS011;4089;52.420;13.334;2023-04-24T09:26:57;20.70;;;0.90;;
8092;SDS011;4089;52.420;13.334;2023-04-24T09:29:25;17.47;;;0.83;;
8092;SDS011;4089;52.420;13.334;2023-04-24T09:31:52;25.37;;;1.00;;
8092;SDS011;4089;52.420;13.334;2023-04-24T09:34:22;17.70;;;0.67;;
8092;SDS011;4089;52.420;13.334;2023-04-24T09:36:50;18.20;;;0.83;;
8092;SDS011;4089;52.420;13.334;2023-04-24T09:39:18;17.37;;;0.70;;
8092;SDS011;4089;52.420;13.334;2023-04-24T09:44:25;20.10;;;0.90;;
8092;SDS011;4089;52.420;13.334;2023-04-24T09:46:56;17.70;;;0.93;;
8092;SDS011;4089;52.420;13.334;2023-04-24T09:49:28;18.70;;;1.10;;
8092;SDS011;4089;52.420;13.334;2023-04-24T09:52:03;20.00;;;0.73;;
8092;SDS011;4089;52.420;13.334;2023-04-24T09:54:34;17.07;;;0.70;;
8092;SDS011;4089;52.420;13.334;2023-04-24T09:57:03;17.37;;;1.00;;
8092;SDS011;4089;52.420;13.334;2023-04-24T09:59:30;23.63;;;1.10;;
8092;SDS011;4089;52.420;13.334;2023-04-24T10:01:57;22.60;;;1.50;;
8092;SDS011;4089;52.420;13.334;2023-04-24T10:04:26;17.90;;;1.00;;
8092;SDS011;4089;52.420;13.334;2023-04-24T10:06:55;20.73;;;0.77;;
8092;SDS011;4089;52.420;13.334;2023-04-24T10:09:23;25.00;;;1.07;;
8092;SDS011;4089;52.420;13.334;2023-04-24T10:11:52;17.73;;;0.70;;
8092;SDS011;4089;52.420;13.334;2023-04-24T10:14:21;17.90;;;0.90;;
8092;SDS011;4089;52.420;13.334;2023-04-24T10:16:51;18.20;;;1.20;;
8092;SDS011;4089;52.420;13.334;2023-04-24T10:19:19;19.20;;;0.90;;
8092;SDS011;4089;52.420;13.334;2023-04-24T10:21:46;18.93;;;0.80;;
8092;SDS011;4089;52.420;13.334;2023-04-24T10:24:17;21.63;;;1.17;;
8092;SDS011;4089;52.420;13.334;2023-04-24T10:26:46;18.60;;;1.03;;
8092;SDS011;4089;52.420;13.334;2023-04-24T10:29:19;21.30;;;1.17;;
8092;SDS011;4089;52.420;13.334;2023-04-24T10:31:47;18.80;;;0.80;;
8092;SDS011;4089;52.420;13.334;2023-04-24T10:34:15;18.00;;;0.60;;
8092;SDS011;4089;52.420;13.334;2023-04-24T10:36:44;20.60;;;1.00;;
8092;SDS011;4089;52.420;13.334;2023-04-24T10:39:15;17.80;;;1.00;;
8092;SDS011;4089;52.420;13.334;2023-04-24T10:41:43;19.23;;;0.90;;
8092;SDS011;4089;52.420;13.334;2023-04-24T10:44:11;16.90;;;0.67;;
8092;SDS011;4089;52.420;13.334;2023-04-24T10:46:43;19.63;;;0.70;;
8092;SDS011;4089;52.420;13.334;2023-04-24T10:49:11;16.97;;;0.80;;
8092;SDS011;4089;52.420;13.334;2023-04-24T10:51:48;18.50;;;1.07;;
8092;SDS011;4089;52.420;13.334;2023-04-24T10:54:26;17.80;;;0.90;;
8092;SDS011;4089;52.420;13.334;2023-04-24T11:00:09;19.70;;;1.10;;
8092;SDS011;4089;52.420;13.334;2023-04-24T11:02:39;18.20;;;1.00;;
8092;SDS011;4089;52.420;13.334;2023-04-24T11:05:09;22.53;;;1.30;;
8092;SDS011;4089;52.420;13.334;2023-04-24T11:13:16;25.00;;;1.83;;
8092;SDS011;4089;52.420;13.334;2023-04-24T11:16:11;18.20;;;0.90;;
8092;SDS011;4089;52.420;13.334;2023-04-24T11:18:51;18.57;;;1.17;;
8092;SDS011;4089;52.420;13.334;2023-04-24T11:21:25;18.33;;;1.03;;
8092;SDS011;4089;52.420;13.334;2023-04-24T11:26:56;20.57;;;1.77;;
8092;SDS011;4089;52.420;13.334;2023-04-24T11:29:44;17.60;;;1.27;;
8092;SDS011;4089;52.420;13.334;2023-04-24T11:32:25;22.80;;;1.00;;
8092;SDS011;4089;52.420;13.334;2023-04-24T11:34:53;17.33;;;1.13;;
8092;SDS011;4089;52.420;13.334;2023-04-24T11:37:29;17.50;;;1.20;;
8092;SDS011;4089;52.420;13.334;2023-04-24T11:40:07;16.47;;;1.20;;
8092;SDS011;4089;52.420;13.334;2023-04-24T11:42:41;17.13;;;0.77;;
8092;SDS011;4089;52.420;13.334;2023-04-24T11:45:16;21.07;;;1.30;;
8092;SDS011;4089;52.420;13.334;2023-04-24T11:47:50;18.50;;;1.17;;
8092;SDS011;4089;52.420;13.334;2023-04-24T11:50:18;19.23;;;0.90;;
8092;SDS011;4089;52.420;13.334;2023-04-24T11:52:49;18.73;;;0.90;;
8092;SDS011;4089;52.420;13.334;2023-04-24T11:57:46;17.33;;;1.00;;
8092;SDS011;4089;52.420;13.334;2023-04-24T12:00:18;18.60;;;1.10;;
8092;SDS011;4089;52.420;13.334;2023-04-24T12:02:49;19.00;;;0.90;;
8092;SDS011;4089;52.420;13.334;2023-04-24T12:05:20;17.57;;;0.90;;
8092;SDS011;4089;52.420;13.334;2023-04-24T12:07:52;20.03;;;0.90;;
8092;SDS011;4089;52.420;13.334;2023-04-24T12:10:20;19.33;;;1.00;;
8092;SDS011;4089;52.420;13.334;2023-04-24T12:12:48;21.47;;;1.63;;
8092;SDS011;4089;52.420;13.334;2023-04-24T12:15:18;19.90;;;1.20;;
8092;SDS011;4089;52.420;13.334;2023-04-24T12:17:46;19.53;;;0.90;;
8092;SDS011;4089;52.420;13.334;2023-04-24T12:20:13;20.03;;;0.83;;
8092;SDS011;4089;52.420;13.334;2023-04-24T12:22:44;18.17;;;0.70;;
8092;SDS011;4089;52.420;13.334;2023-04-24T12:25:16;19.07;;;0.80;;
8092;SDS011;4089;52.420;13.334;2023-04-24T12:27:45;19.77;;;1.00;;
8092;SDS011;4089;52.420;13.334;2023-04-24T12:30:14;18.80;;;0.90;;
8092;SDS011;4089;52.420;13.334;2023-04-24T12:32:43;20.87;;;0.93;;
8092;SDS011;4089;52.420;13.334;2023-04-24T12:35:18;20.23;;;1.17;;
8092;SDS011;4089;52.420;13.334;2023-04-24T12:37:47;21.90;;;0.80;;
8092;SDS011;4089;52.420;13.334;2023-04-24T12:40:14;20.30;;;0.80;;
8092;SDS011;4089;52.420;13.334;2023-04-24T12:42:45;18.80;;;0.77;;
8092;SDS011;4089;52.420;13.334;2023-04-24T12:45:17;24.00;;;0.70;;
8092;SDS011;4089;52.420;13.334;2023-04-24T12:47:45;19.27;;;0.87;;
8092;SDS011;4089;52.420;13.334;2023-04-24T12:50:13;18.93;;;0.90;;
8092;SDS011;4089;52.420;13.334;2023-04-24T12:52:42;19.87;;;0.93;;
8092;SDS011;4089;52.420;13.334;2023-04-24T12:55:09;18.90;;;0.63;;
8092;SDS011;4089;52.420;13.334;2023-04-24T12:57:38;20.17;;;0.97;;
8092;SDS011;4089;52.420;13.334;2023-04-24T13:00:06;20.90;;;0.80;;
8092;SDS011;4089;52.420;13.334;2023-04-24T13:02:34;19.07;;;0.60;;
8092;SDS011;4089;52.420;13.334;2023-04-24T13:05:02;20.50;;;0.70;;
8092;SDS011;4089;52.420;13.334;2023-04-24T13:07:30;21.03;;;0.93;;
8092;SDS011;4089;52.420;13.334;2023-04-24T13:09:56;21.50;;;0.90;;
8092;SDS011;4089;52.420;13.334;2023-04-24T13:12:26;19.70;;;0.70;;
8092;SDS011;4089;52.420;13.334;2023-04-24T13:14:53;21.10;;;0.90;;
8092;SDS011;4089;52.420;13.334;2023-04-24T13:17:20;23.60;;;0.63;;
8092;SDS011;4089;52.420;13.334;2023-04-24T13:19:49;21.30;;;1.43;;
8092;SDS011;4089;52.420;13.334;2023-04-24T13:22:17;23.30;;;0.90;;
8092;SDS011;4089;52.420;13.334;2023-04-24T13:24:47;19.80;;;0.80;;
8092;SDS011;4089;52.420;13.334;2023-04-24T13:27:17;22.90;;;0.77;;
8092;SDS011;4089;52.420;13.334;2023-04-24T13:29:44;19.77;;;0.80;;
8092;SDS011;4089;52.420;13.334;2023-04-24T13:32:11;20.47;;;0.77;;
8092;SDS011;4089;52.420;13.334;2023-04-24T13:34:38;19.20;;;0.63;;
8092;SDS011;4089;52.420;13.334;2023-04-24T13:37:05;19.17;;;0.60;;
8092;SDS011;4089;52.420;13.334;2023-04-24T13:39:32;21.10;;;0.93;;
8092;SDS011;4089;52.420;13.334;2023-04-24T13:41:59;21.43;;;0.80;;
8092;SDS011;4089;52.420;13.334;2023-04-24T13:44:30;19.53;;;0.77;;
8092;SDS011;4089;52.420;13.334;2023-04-24T13:46:57;21.30;;;0.80;;
8092;SDS011;4089;52.420;13.334;2023-04-24T13:49:24;19.40;;;0.80;;
8092;SDS011;4089;52.420;13.334;2023-04-24T13:51:51;19.07;;;0.50;;
8092;SDS011;4089;52.420;13.334;2023-04-24T13:54:19;19.47;;;1.00;;
8092;SDS011;4089;52.420;13.334;2023-04-24T13:56:46;20.10;;;1.10;;
8092;SDS011;4089;52.420;13.334;2023-04-24T13:59:12;19.60;;;0.77;;
8092;SDS011;4089;52.420;13.334;2023-04-24T14:01:39;19.67;;;0.80;;
8092;SDS011;4089;52.420;13.334;2023-04-24T14:04:06;20.40;;;0.87;;
8092;SDS011;4089;52.420;13.334;2023-04-24T14:06:33;22.23;;;1.17;;
8092;SDS011;4089;52.420;13.334;2023-04-24T14:09:00;24.17;;;0.80;;
8092;SDS011;4089;52.420;13.334;2023-04-24T14:11:26;20.13;;;0.80;;
8092;SDS011;4089;52.420;13.334;2023-04-24T14:13:54;20.23;;;0.93;;
8092;SDS011;4089;52.420;13.334;2023-04-24T14:16:22;22.03;;;0.90;;
8092;SDS011;4089;52.420;13.334;2023-04-24T14:18:49;22.80;;;1.17;;
8092;SDS011;4089;52.420;13.334;2023-04-24T14:21:16;20.17;;;0.77;;
8092;SDS011;4089;52.420;13.334;2023-04-24T14:23:43;20.10;;;0.80;;
8092;SDS011;4089;52.420;13.334;2023-04-24T14:26:10;20.07;;;0.73;;
8092;SDS011;4089;52.420;13.334;2023-04-24T14:28:37;29.63;;;1.10;;
8092;SDS011;4089;52.420;13.334;2023-04-24T14:31:04;21.63;;;1.43;;
8092;SDS011;4089;52.420;13.334;2023-04-24T14:33:31;26.27;;;1.20;;
8092;SDS011;4089;52.420;13.334;2023-04-24T14:35:58;21.40;;;0.97;;
8092;SDS011;4089;52.420;13.334;2023-04-24T14:38:25;21.07;;;1.40;;
8092;SDS011;4089;52.420;13.334;2023-04-24T14:40:51;22.73;;;1.30;;
8092;SDS011;4089;52.420;13.334;2023-04-24T14:43:33;20.17;;;1.00;;
8092;SDS011;4089;52.420;13.334;2023-04-24T14:46:01;22.90;;;1.10;;
8092;SDS011;4089;52.420;13.334;2023-04-24T14:48:29;20.87;;;0.97;;
8092;SDS011;4089;52.420;13.334;2023-04-24T14:50:56;20.60;;;0.83;;
8092;SDS011;4089;52.420;13.334;2023-04-24T14:53:23;20.67;;;1.00;;
8092;SDS011;4089;52.420;13.334;2023-04-24T14:55:50;20.50;;;1.20;;
8092;SDS011;4089;52.420;13.334;2023-04-24T14:58:16;20.93;;;1.10;;
8092;SDS011;4089;52.420;13.334;2023-04-24T15:00:43;27.70;;;1.30;;
8092;SDS011;4089;52.420;13.334;2023-04-24T15:03:10;21.27;;;1.30;;
8092;SDS011;4089;52.420;13.334;2023-04-24T15:05:37;21.10;;;1.43;;
8092;SDS011;4089;52.420;13.334;2023-04-24T15:08:05;23.80;;;1.50;;
8092;SDS011;4089;52.420;13.334;2023-04-24T15:10:32;21.80;;;1.37;;